Terminal Aerodrome Forecast
Issued by NWS

Home | Current Version | Previous Version | Text Only | Print | Product List | Glossary Off
Versions: 1 2 3 4 5 6 7 8 9 10 11 12 13 14 15 16 17 18 19 20 21 22 23 24 25 26 27 28 29 30 31 32 33 34 35 36 37 38 39 40

000
FTUS43 KGRB 271100
TAFRHI
TAF
KRHI 271139Z 2712/2812 03003KT 1 1/2SM -SN BR SCT006 OVC012
      TEMPO 2712/2716 3/4SM -SN BKN006
     FM271600 34005KT 3SM -SN BR BKN008 OVC018
     FM272000 29009KT 5SM -SN BKN018
     FM272200 29008KT P6SM SCT020 BKN040
     FM280200 26006KT P6SM SCT040 BKN120=

USA.gov is the U.S. government's official web portal to all federal, state and local government web resources and services.